VBV097 GMTT-LEPA
Flight info
| Callsign | VBV097 |
|---|---|
| Flight time | N/A |
| Altitude | FL240 |
| Route | BARP2D BARPA M985 PIMOS M445 RIXUR N851 IZA BITLO EDULI |
| Aircraft | DH8D |
Departure
| Time | 2026-05-05 17:48 |
|---|---|
| Airport | Tangier Ibn Battuta Airport (GMTT) |
Arrival
| Time | N/A |
|---|---|
| Airport | Palma de Mallorca Airport (LEPA) |
| Time | Latitude | Longitude | Altitude | Speed | Heading |
|---|---|---|---|---|---|
| 2026-05-05 17:32 | 35.72534 | -5.91241 | 77 ft | 0 kts | 354° |
| 2026-05-05 17:39 | 35.72527 | -5.91240 | 77 ft | 4 kts | 354° |
| 2026-05-05 17:39 | 35.72500 | -5.91236 | 77 ft | 4 kts | 354° |
| 2026-05-05 17:39 | 35.72474 | -5.91233 | 77 ft | 1 kts | 354° |
| 2026-05-05 17:39 | 35.72473 | -5.91233 | 77 ft | 0 kts | 354° |
| 2026-05-05 17:41 | 35.72479 | -5.91241 | 77 ft | 3 kts | 284° |
| 2026-05-05 17:41 | 35.72472 | -5.91286 | 77 ft | 8 kts | 253° |
| 2026-05-05 17:42 | 35.72461 | -5.91378 | 77 ft | 13 kts | 265° |
| 2026-05-05 17:42 | 35.72454 | -5.91514 | 77 ft | 19 kts | 267° |
| 2026-05-05 17:42 | 35.72499 | -5.91667 | 77 ft | 22 kts | 330° |
| 2026-05-05 17:42 | 35.72665 | -5.91698 | 77 ft | 26 kts | 356° |
| 2026-05-05 17:43 | 35.72860 | -5.91719 | 77 ft | 26 kts | 356° |
| 2026-05-05 17:43 | 35.72943 | -5.91675 | 77 ft | 12 kts | 94° |
| 2026-05-05 17:43 | 35.72931 | -5.91553 | 77 ft | 17 kts | 96° |
| 2026-05-05 17:43 | 35.72916 | -5.91388 | 77 ft | 22 kts | 96° |
| 2026-05-05 17:44 | 35.72897 | -5.91185 | 77 ft | 26 kts | 97° |
| 2026-05-05 17:44 | 35.72875 | -5.90975 | 77 ft | 15 kts | 93° |
| 2026-05-05 17:44 | 35.72942 | -5.90863 | 77 ft | 19 kts | 22° |
| 2026-05-05 17:44 | 35.72983 | -5.90861 | 77 ft | 0 kts | 343° |
| 2026-05-05 17:45 | 35.72986 | -5.90862 | 77 ft | 2 kts | 343° |
| 2026-05-05 17:45 | 35.73020 | -5.90882 | 77 ft | 9 kts | 330° |
| 2026-05-05 17:45 | 35.73053 | -5.90942 | 77 ft | 5 kts | 288° |
| 2026-05-05 17:46 | 35.73057 | -5.90964 | 77 ft | 0 kts | 279° |
| 2026-05-05 17:47 | 35.73059 | -5.90974 | 77 ft | 4 kts | 279° |
| 2026-05-05 17:47 | 35.73084 | -5.91235 | 77 ft | 67 kts | 275° |
| 2026-05-05 17:47 | 35.73163 | -5.92089 | 77 ft | 131 kts | 277° |
| 2026-05-05 17:47 | 35.73271 | -5.93316 | 453 ft | 145 kts | 275° |
| 2026-05-05 17:48 | 35.73418 | -5.94672 | 825 ft | 170 kts | 275° |
| 2026-05-05 17:48 | 35.73511 | -5.96195 | 1333 ft | 185 kts | 273° |
| 2026-05-05 17:48 | 35.73634 | -5.97821 | 1922 ft | 194 kts | 276° |
| 2026-05-05 17:48 | 35.73803 | -5.99466 | 2645 ft | 194 kts | 276° |
| 2026-05-05 17:49 | 35.73560 | -6.01082 | 3344 ft | 200 kts | 242° |
| 2026-05-05 17:49 | 35.72510 | -6.02202 | 3990 ft | 213 kts | 206° |
| 2026-05-05 17:49 | 35.71012 | -6.02341 | 4606 ft | 228 kts | 169° |
| 2026-05-05 17:49 | 35.69617 | -6.01387 | 5261 ft | 235 kts | 138° |
| 2026-05-05 17:50 | 35.68639 | -5.99776 | 5942 ft | 237 kts | 115° |
| 2026-05-05 17:50 | 35.68131 | -5.97854 | 6637 ft | 236 kts | 97° |
| 2026-05-05 17:50 | 35.68045 | -5.95837 | 7314 ft | 236 kts | 84° |
| 2026-05-05 17:50 | 35.68267 | -5.93827 | 7958 ft | 237 kts | 75° |
| 2026-05-05 17:51 | 35.68671 | -5.91849 | 8573 ft | 240 kts | 73° |
| 2026-05-05 17:51 | 35.69166 | -5.89883 | 9180 ft | 241 kts | 71° |
| 2026-05-05 17:51 | 35.69709 | -5.87930 | 9740 ft | 245 kts | 70° |
| 2026-05-05 17:51 | 35.70300 | -5.85951 | 10255 ft | 249 kts | 68° |
| 2026-05-05 17:52 | 35.70931 | -5.83950 | 10737 ft | 254 kts | 67° |
| 2026-05-05 17:52 | 35.71601 | -5.81918 | 11198 ft | 258 kts | 65° |
| 2026-05-05 17:52 | 35.72514 | -5.80006 | 11636 ft | 260 kts | 51° |
| 2026-05-05 17:52 | 35.73719 | -5.78333 | 12082 ft | 263 kts | 43° |
| 2026-05-05 17:53 | 35.75019 | -5.76739 | 12517 ft | 265 kts | 41° |
| 2026-05-05 17:53 | 35.76347 | -5.75146 | 12955 ft | 268 kts | 41° |
| 2026-05-05 17:53 | 35.77686 | -5.73548 | 13381 ft | 270 kts | 41° |
| 2026-05-05 17:53 | 35.79031 | -5.71933 | 13803 ft | 271 kts | 41° |
| 2026-05-05 17:54 | 35.80381 | -5.70299 | 14201 ft | 274 kts | 41° |
| 2026-05-05 17:54 | 35.81739 | -5.68640 | 14587 ft | 276 kts | 42° |
| 2026-05-05 17:54 | 35.83097 | -5.66968 | 14954 ft | 278 kts | 42° |
| 2026-05-05 17:54 | 35.84466 | -5.65278 | 15313 ft | 280 kts | 42° |
| 2026-05-05 17:55 | 35.85842 | -5.63578 | 15668 ft | 281 kts | 42° |
| 2026-05-05 17:55 | 35.87199 | -5.61899 | 15995 ft | 283 kts | 42° |
| 2026-05-05 17:55 | 35.88595 | -5.60176 | 16324 ft | 285 kts | 42° |
| 2026-05-05 17:55 | 35.89999 | -5.58448 | 16648 ft | 286 kts | 42° |
| 2026-05-05 17:56 | 35.91410 | -5.56714 | 16950 ft | 288 kts | 42° |
| 2026-05-05 17:56 | 35.92833 | -5.54967 | 17253 ft | 290 kts | 41° |
| 2026-05-05 17:56 | 35.94263 | -5.53210 | 17553 ft | 291 kts | 41° |
| 2026-05-05 17:56 | 35.95698 | -5.51448 | 17832 ft | 293 kts | 41° |
| 2026-05-05 17:57 | 35.97145 | -5.49673 | 18108 ft | 294 kts | 41° |
| 2026-05-05 17:57 | 35.98601 | -5.47888 | 18381 ft | 296 kts | 41° |
| 2026-05-05 17:57 | 36.00052 | -5.46105 | 18633 ft | 297 kts | 41° |
| 2026-05-05 17:57 | 36.01522 | -5.44300 | 18884 ft | 299 kts | 41° |
| 2026-05-05 17:58 | 36.02992 | -5.42488 | 19131 ft | 300 kts | 41° |
| 2026-05-05 17:58 | 36.04473 | -5.40665 | 19363 ft | 302 kts | 41° |
| 2026-05-05 17:58 | 36.05959 | -5.38841 | 19585 ft | 303 kts | 41° |
| 2026-05-05 17:58 | 36.07459 | -5.37003 | 19803 ft | 305 kts | 41° |
| 2026-05-05 17:59 | 36.08967 | -5.35156 | 20016 ft | 307 kts | 41° |
| 2026-05-05 17:59 | 36.10476 | -5.33305 | 20211 ft | 308 kts | 41° |
| 2026-05-05 17:59 | 36.11990 | -5.31446 | 20408 ft | 310 kts | 41° |
| 2026-05-05 17:59 | 36.13510 | -5.29579 | 20605 ft | 311 kts | 41° |
| 2026-05-05 18:00 | 36.15047 | -5.27696 | 20799 ft | 312 kts | 41° |
| 2026-05-05 18:00 | 36.16592 | -5.25803 | 20988 ft | 314 kts | 41° |
| 2026-05-05 18:00 | 36.18130 | -5.23920 | 21171 ft | 315 kts | 41° |
| 2026-05-05 18:00 | 36.19530 | -5.21851 | 21312 ft | 322 kts | 58° |
| 2026-05-05 18:01 | 36.20223 | -5.19229 | 21485 ft | 324 kts | 84° |
| 2026-05-05 18:01 | 36.20184 | -5.16489 | 21739 ft | 321 kts | 92° |
| 2026-05-05 18:01 | 36.20579 | -5.13790 | 21946 ft | 322 kts | 68° |
| 2026-05-05 18:01 | 36.21678 | -5.11393 | 22132 ft | 321 kts | 53° |
| 2026-05-05 18:02 | 36.23035 | -5.09196 | 22274 ft | 322 kts | 50° |
| 2026-05-05 18:02 | 36.24418 | -5.07006 | 22420 ft | 324 kts | 50° |
| 2026-05-05 18:02 | 36.25781 | -5.04815 | 22575 ft | 325 kts | 51° |
| 2026-05-05 18:02 | 36.27130 | -5.02632 | 22722 ft | 326 kts | 51° |
| 2026-05-05 18:03 | 36.28497 | -5.00415 | 22855 ft | 327 kts | 51° |
| 2026-05-05 18:03 | 36.29877 | -4.98168 | 22997 ft | 328 kts | 51° |
| 2026-05-05 18:03 | 36.31258 | -4.95921 | 23131 ft | 329 kts | 51° |
| 2026-05-05 18:03 | 36.32642 | -4.93664 | 23257 ft | 330 kts | 51° |
| 2026-05-05 18:04 | 36.34028 | -4.91403 | 23390 ft | 331 kts | 51° |
| 2026-05-05 18:04 | 36.35419 | -4.89130 | 23511 ft | 332 kts | 51° |
| 2026-05-05 18:04 | 36.36815 | -4.86848 | 23628 ft | 333 kts | 51° |
| 2026-05-05 18:04 | 36.38216 | -4.84559 | 23749 ft | 334 kts | 51° |
| 2026-05-05 18:05 | 36.39555 | -4.82375 | 23840 ft | 336 kts | 51° |
| 2026-05-05 18:05 | 36.40967 | -4.80067 | 23898 ft | 338 kts | 51° |
| 2026-05-05 18:05 | 36.42391 | -4.77733 | 23920 ft | 342 kts | 51° |
| 2026-05-05 18:05 | 36.43828 | -4.75376 | 23927 ft | 346 kts | 51° |
| 2026-05-05 18:06 | 36.45273 | -4.73006 | 23928 ft | 349 kts | 51° |
| 2026-05-05 18:06 | 36.46254 | -4.71397 | 23928 ft | 351 kts | 51° |
| 2026-05-05 18:06 | 36.48220 | -4.68172 | 23926 ft | 355 kts | 51° |
| 2026-05-05 18:06 | 36.49712 | -4.65723 | 23924 ft | 357 kts | 51° |
| 2026-05-05 18:07 | 36.51207 | -4.63267 | 23922 ft | 359 kts | 51° |
| 2026-05-05 18:07 | 36.52702 | -4.60806 | 23920 ft | 361 kts | 51° |
| 2026-05-05 18:07 | 36.53752 | -4.59079 | 23919 ft | 362 kts | 51° |